sensor_id;sensor_type;location;lat;lon;timestamp;pressure;altitude;pressure_sealevel;temperature;humidity
22283;BME280;11310;51.528;21.204;2022-08-19T00:02:03;99634.00;;;20.82;100.00
22283;BME280;11310;51.528;21.204;2022-08-19T00:04:35;99633.44;;;20.78;100.00
22283;BME280;11310;51.528;21.204;2022-08-19T00:07:05;99639.91;;;20.76;100.00
22283;BME280;11310;51.528;21.204;2022-08-19T00:09:34;99627.88;;;20.72;100.00
22283;BME280;11310;51.528;21.204;2022-08-19T00:12:03;99636.00;;;20.70;100.00
22283;BME280;11310;51.528;21.204;2022-08-19T00:14:31;99631.81;;;20.68;100.00
22283;BME280;11310;51.528;21.204;2022-08-19T00:17:00;99634.59;;;20.66;100.00
22283;BME280;11310;51.528;21.204;2022-08-19T00:19:29;99634.06;;;20.63;100.00
22283;BME280;11310;51.528;21.204;2022-08-19T00:22:00;99633.47;;;20.59;100.00
22283;BME280;11310;51.528;21.204;2022-08-19T00:24:29;99630.13;;;20.57;100.00
22283;BME280;11310;51.528;21.204;2022-08-19T00:26:58;99632.06;;;20.55;100.00
22283;BME280;11310;51.528;21.204;2022-08-19T00:29:48;99629.72;;;20.52;100.00
22283;BME280;11310;51.528;21.204;2022-08-19T00:32:20;99639.97;;;20.47;100.00
22283;BME280;11310;51.528;21.204;2022-08-19T00:34:49;99642.91;;;20.44;100.00
22283;BME280;11310;51.528;21.204;2022-08-19T00:37:23;99640.50;;;20.41;100.00
22283;BME280;11310;51.528;21.204;2022-08-19T00:39:53;99641.50;;;20.40;100.00
22283;BME280;11310;51.528;21.204;2022-08-19T00:42:23;99632.97;;;20.37;100.00
22283;BME280;11310;51.528;21.204;2022-08-19T00:44:55;99625.78;;;20.37;100.00
22283;BME280;11310;51.528;21.204;2022-08-19T00:47:24;99624.84;;;20.38;100.00
22283;BME280;11310;51.528;21.204;2022-08-19T00:49:56;99638.16;;;20.38;100.00
22283;BME280;11310;51.528;21.204;2022-08-19T00:52:28;99636.63;;;20.36;100.00
22283;BME280;11310;51.528;21.204;2022-08-19T00:54:58;99641.38;;;20.32;100.00
22283;BME280;11310;51.528;21.204;2022-08-19T00:57:31;99640.69;;;20.30;100.00
22283;BME280;11310;51.528;21.204;2022-08-19T01:00:06;99636.34;;;20.29;100.00
22283;BME280;11310;51.528;21.204;2022-08-19T01:02:35;99641.09;;;20.26;100.00
22283;BME280;11310;51.528;21.204;2022-08-19T01:05:07;99635.19;;;20.22;100.00
22283;BME280;11310;51.528;21.204;2022-08-19T01:07:39;99632.66;;;20.21;100.00
22283;BME280;11310;51.528;21.204;2022-08-19T01:10:11;99626.78;;;20.17;100.00
22283;BME280;11310;51.528;21.204;2022-08-19T01:12:43;99632.13;;;20.17;100.00
22283;BME280;11310;51.528;21.204;2022-08-19T01:15:16;99634.91;;;20.16;100.00
22283;BME280;11310;51.528;21.204;2022-08-19T01:17:47;99643.03;;;20.14;100.00
22283;BME280;11310;51.528;21.204;2022-08-19T01:20:19;99645.72;;;20.14;100.00
22283;BME280;11310;51.528;21.204;2022-08-19T01:22:52;99648.38;;;20.14;100.00
22283;BME280;11310;51.528;21.204;2022-08-19T01:25:24;99636.91;;;20.14;100.00
22283;BME280;11310;51.528;21.204;2022-08-19T01:27:55;99640.13;;;20.17;100.00
22283;BME280;11310;51.528;21.204;2022-08-19T01:30:36;99641.53;;;20.21;100.00
22283;BME280;11310;51.528;21.204;2022-08-19T01:33:04;99639.28;;;20.26;100.00
22283;BME280;11310;51.528;21.204;2022-08-19T01:35:35;99633.66;;;20.29;100.00
22283;BME280;11310;51.528;21.204;2022-08-19T01:38:08;99633.25;;;20.24;100.00
22283;BME280;11310;51.528;21.204;2022-08-19T01:40:39;99644.72;;;20.25;100.00
22283;BME280;11310;51.528;21.204;2022-08-19T01:43:09;99633.09;;;20.26;100.00
22283;BME280;11310;51.528;21.204;2022-08-19T01:45:38;99635.06;;;20.24;100.00
22283;BME280;11310;51.528;21.204;2022-08-19T01:48:07;99634.94;;;20.25;100.00
22283;BME280;11310;51.528;21.204;2022-08-19T01:50:36;99634.94;;;20.25;100.00
22283;BME280;11310;51.528;21.204;2022-08-19T01:53:09;99636.47;;;20.28;100.00
22283;BME280;11310;51.528;21.204;2022-08-19T01:55:41;99627.63;;;20.27;100.00
22283;BME280;11310;51.528;21.204;2022-08-19T01:58:14;99628.34;;;20.29;100.00
22283;BME280;11310;51.528;21.204;2022-08-19T02:00:44;99626.50;;;20.30;100.00
22283;BME280;11310;51.528;21.204;2022-08-19T02:03:13;99625.38;;;20.32;100.00
22283;BME280;11310;51.528;21.204;2022-08-19T02:05:43;99631.28;;;20.36;100.00
22283;BME280;11310;51.528;21.204;2022-08-19T02:08:14;99616.13;;;20.36;100.00
22283;BME280;11310;51.528;21.204;2022-08-19T02:10:43;99626.78;;;20.36;100.00
22283;BME280;11310;51.528;21.204;2022-08-19T02:13:13;99615.13;;;20.37;100.00
22283;BME280;11310;51.528;21.204;2022-08-19T02:15:46;99617.78;;;20.37;100.00
22283;BME280;11310;51.528;21.204;2022-08-19T02:18:16;99616.13;;;20.36;100.00
22283;BME280;11310;51.528;21.204;2022-08-19T02:20:45;99610.94;;;20.35;100.00
22283;BME280;11310;51.528;21.204;2022-08-19T02:23:16;99607.72;;;20.31;100.00
22283;BME280;11310;51.528;21.204;2022-08-19T02:25:47;99615.44;;;20.34;100.00
22283;BME280;11310;51.528;21.204;2022-08-19T02:28:16;99618.38;;;20.31;100.00
22283;BME280;11310;51.528;21.204;2022-08-19T02:30:45;99611.38;;;20.30;100.00
22283;BME280;11310;51.528;21.204;2022-08-19T02:33:16;99620.34;;;20.29;100.00
22283;BME280;11310;51.528;21.204;2022-08-19T02:35:45;99625.69;;;20.29;100.00
22283;BME280;11310;51.528;21.204;2022-08-19T02:38:16;99625.69;;;20.29;100.00
22283;BME280;11310;51.528;21.204;2022-08-19T02:40:55;99622.88;;;20.31;100.00
22283;BME280;11310;51.528;21.204;2022-08-19T02:43:26;99620.03;;;20.32;100.00
22283;BME280;11310;51.528;21.204;2022-08-19T02:46:01;99622.03;;;20.30;100.00
22283;BME280;11310;51.528;21.204;2022-08-19T02:48:30;99620.34;;;20.29;100.00
22283;BME280;11310;51.528;21.204;2022-08-19T02:51:00;99623.28;;;20.26;100.00
22283;BME280;11310;51.528;21.204;2022-08-19T02:53:30;99628.88;;;20.23;100.00
22283;BME280;11310;51.528;21.204;2022-08-19T02:55:59;99628.19;;;20.21;100.00
22283;BME280;11310;51.528;21.204;2022-08-19T02:58:27;99637.19;;;20.20;100.00
22283;BME280;11310;51.528;21.204;2022-08-19T03:00:56;99626.78;;;20.17;100.00
22283;BME280;11310;51.528;21.204;2022-08-19T03:03:26;99625.13;;;20.16;100.00
22283;BME280;11310;51.528;21.204;2022-08-19T03:06:06;99629.03;;;20.12;100.00
22283;BME280;11310;51.528;21.204;2022-08-19T03:08:37;99622.31;;;20.08;100.00
22283;BME280;11310;51.528;21.204;2022-08-19T03:11:13;99623.41;;;20.06;100.00
22283;BME280;11310;51.528;21.204;2022-08-19T03:13:42;99623.84;;;20.01;100.00
22283;BME280;11310;51.528;21.204;2022-08-19T03:16:12;99616.97;;;19.99;100.00
22283;BME280;11310;51.528;21.204;2022-08-19T03:18:44;99620.75;;;19.96;100.00
22283;BME280;11310;51.528;21.204;2022-08-19T03:21:16;99617.78;;;19.90;100.00
22283;BME280;11310;51.528;21.204;2022-08-19T03:23:46;99618.75;;;19.89;100.00
22283;BME280;11310;51.528;21.204;2022-08-19T03:26:16;99622.53;;;19.86;100.00
22283;BME280;11310;51.528;21.204;2022-08-19T03:28:46;99620.16;;;19.83;100.00
22283;BME280;11310;51.528;21.204;2022-08-19T03:31:25;99622.09;;;19.81;100.00
22283;BME280;11310;51.528;21.204;2022-08-19T03:34:17;99627.56;;;19.80;100.00
22283;BME280;11310;51.528;21.204;2022-08-19T03:36:47;99623.22;;;19.79;100.00
22283;BME280;11310;51.528;21.204;2022-08-19T03:39:17;99630.41;;;19.78;100.00
22283;BME280;11310;51.528;21.204;2022-08-19T03:41:48;99627.72;;;19.78;100.00
22283;BME280;11310;51.528;21.204;2022-08-19T03:44:38;99627.00;;;19.76;100.00
22283;BME280;11310;51.528;21.204;2022-08-19T03:47:09;99626.03;;;19.77;100.00
22283;BME280;11310;51.528;21.204;2022-08-19T03:49:45;99631.50;;;19.76;100.00
22283;BME280;11310;51.528;21.204;2022-08-19T03:52:14;99623.78;;;19.73;100.00
22283;BME280;11310;51.528;21.204;2022-08-19T03:54:45;99614.94;;;19.72;100.00
22283;BME280;11310;51.528;21.204;2022-08-19T03:57:13;99618.34;;;19.74;100.00
22283;BME280;11310;51.528;21.204;2022-08-19T03:59:42;99616.34;;;19.76;100.00
22283;BME280;11310;51.528;21.204;2022-08-19T04:02:12;99606.56;;;19.77;100.00
22283;BME280;11310;51.528;21.204;2022-08-19T04:04:42;99605.44;;;19.79;100.00
22283;BME280;11310;51.528;21.204;2022-08-19T04:07:13;99600.53;;;19.84;100.00
22283;BME280;11310;51.528;21.204;2022-08-19T04:09:44;99614.97;;;19.91;100.00
22283;BME280;11310;51.528;21.204;2022-08-19T04:12:13;99612.03;;;19.94;100.00
22283;BME280;11310;51.528;21.204;2022-08-19T04:14:43;99608.81;;;20.00;100.00
22283;BME280;11310;51.528;21.204;2022-08-19T04:17:12;99608.28;;;20.06;100.00
22283;BME280;11310;51.528;21.204;2022-08-19T04:19:42;99615.72;;;20.12;100.00
22283;BME280;11310;51.528;21.204;2022-08-19T04:22:11;99618.94;;;20.16;100.00
22283;BME280;11310;51.528;21.204;2022-08-19T04:24:40;99621.88;;;20.22;100.00
22283;BME280;11310;51.528;21.204;2022-08-19T04:27:10;99620.47;;;20.28;100.00
22283;BME280;11310;51.528;21.204;2022-08-19T04:29:39;99629.56;;;20.35;100.00
22283;BME280;11310;51.528;21.204;2022-08-19T04:32:10;99628.19;;;20.40;100.00
22283;BME280;11310;51.528;21.204;2022-08-19T04:34:43;99632.94;;;20.46;100.00
22283;BME280;11310;51.528;21.204;2022-08-19T04:37:29;99626.75;;;20.55;100.00
22283;BME280;11310;51.528;21.204;2022-08-19T04:40:04;99625.22;;;20.62;100.00
22283;BME280;11310;51.528;21.204;2022-08-19T04:42:52;99631.63;;;20.69;100.00
22283;BME280;11310;51.528;21.204;2022-08-19T04:45:22;99627.28;;;20.78;100.00
22283;BME280;11310;51.528;21.204;2022-08-19T04:47:55;99640.03;;;20.84;100.00
22283;BME280;11310;51.528;21.204;2022-08-19T04:50:45;99640.88;;;20.94;100.00
22283;BME280;11310;51.528;21.204;2022-08-19T04:53:14;99640.13;;;21.02;100.00
22283;BME280;11310;51.528;21.204;2022-08-19T04:55:43;99634.78;;;21.11;100.00
22283;BME280;11310;51.528;21.204;2022-08-19T04:58:13;99633.06;;;21.20;100.00
22283;BME280;11310;51.528;21.204;2022-08-19T05:00:43;99633.16;;;21.28;100.00
22283;BME280;11310;51.528;21.204;2022-08-19T05:03:12;99634.94;;;21.37;100.00
22283;BME280;11310;51.528;21.204;2022-08-19T05:05:46;99643.91;;;21.45;100.00
22283;BME280;11310;51.528;21.204;2022-08-19T05:08:18;99642.16;;;21.54;100.00
22283;BME280;11310;51.528;21.204;2022-08-19T05:10:58;99641.44;;;21.61;100.00
22283;BME280;11310;51.528;21.204;2022-08-19T05:13:28;99652.25;;;21.69;100.00
22283;BME280;11310;51.528;21.204;2022-08-19T05:15:58;99645.28;;;21.76;100.00
22283;BME280;11310;51.528;21.204;2022-08-19T05:18:27;99650.72;;;21.84;100.00
22283;BME280;11310;51.528;21.204;2022-08-19T05:21:16;99634.81;;;21.92;100.00
22283;BME280;11310;51.528;21.204;2022-08-19T05:24:03;99639.09;;;22.03;100.00
22283;BME280;11310;51.528;21.204;2022-08-19T05:26:35;99641.53;;;22.14;100.00
22283;BME280;11310;51.528;21.204;2022-08-19T05:29:06;99647.47;;;22.25;100.00
22283;BME280;11310;51.528;21.204;2022-08-19T05:31:36;99646.41;;;22.36;100.00
22283;BME280;11310;51.528;21.204;2022-08-19T05:34:08;99659.56;;;22.47;100.00
22283;BME280;11310;51.528;21.204;2022-08-19T05:36:47;99660.00;;;22.60;100.00
22283;BME280;11310;51.528;21.204;2022-08-19T05:39:19;99656.09;;;22.72;100.00
22283;BME280;11310;51.528;21.204;2022-08-19T05:41:50;99647.81;;;22.83;100.00
22283;BME280;11310;51.528;21.204;2022-08-19T05:44:24;99644.84;;;22.94;100.00
22283;BME280;11310;51.528;21.204;2022-08-19T05:46:54;99633.91;;;23.05;100.00
22283;BME280;11310;51.528;21.204;2022-08-19T05:49:23;99632.66;;;23.17;100.00
22283;BME280;11310;51.528;21.204;2022-08-19T05:51:52;99633.03;;;23.30;100.00
22283;BME280;11310;51.528;21.204;2022-08-19T05:54:22;99640.47;;;23.44;100.00
22283;BME280;11310;51.528;21.204;2022-08-19T05:56:52;99647.88;;;23.58;100.00
22283;BME280;11310;51.528;21.204;2022-08-19T05:59:21;99647.47;;;23.70;100.00
22283;BME280;11310;51.528;21.204;2022-08-19T06:01:52;99647.31;;;23.80;100.00
22283;BME280;11310;51.528;21.204;2022-08-19T06:04:24;99653.69;;;23.87;100.00
22283;BME280;11310;51.528;21.204;2022-08-19T06:06:54;99658.13;;;23.96;100.00
22283;BME280;11310;51.528;21.204;2022-08-19T06:09:24;99664.16;;;24.06;100.00
22283;BME280;11310;51.528;21.204;2022-08-19T06:11:54;99666.50;;;24.17;100.00
22283;BME280;11310;51.528;21.204;2022-08-19T06:14:28;99670.56;;;24.29;100.00
22283;BME280;11310;51.528;21.204;2022-08-19T06:17:01;99670.59;;;24.37;100.00
22283;BME280;11310;51.528;21.204;2022-08-19T06:19:33;99668.72;;;24.45;100.00
22283;BME280;11310;51.528;21.204;2022-08-19T06:22:07;99668.75;;;24.53;100.00
22283;BME280;11310;51.528;21.204;2022-08-19T06:24:39;99661.88;;;24.59;100.00
22283;BME280;11310;51.528;21.204;2022-08-19T06:27:09;99669.28;;;24.73;100.00
22283;BME280;11310;51.528;21.204;2022-08-19T06:29:39;99674.13;;;24.85;100.00
22283;BME280;11310;51.528;21.204;2022-08-19T06:32:09;99671.59;;;25.00;100.00
22283;BME280;11310;51.528;21.204;2022-08-19T06:34:38;99670.38;;;25.18;100.00
22283;BME280;11310;51.528;21.204;2022-08-19T06:37:08;99671.88;;;25.37;100.00
22283;BME280;11310;51.528;21.204;2022-08-19T06:39:38;99674.16;;;25.56;99.24
22283;BME280;11310;51.528;21.204;2022-08-19T06:42:07;99674.06;;;25.72;98.15
22283;BME280;11310;51.528;21.204;2022-08-19T06:44:41;99673.53;;;25.84;97.84
22283;BME280;11310;51.528;21.204;2022-08-19T06:47:18;99676.31;;;25.99;96.82
22283;BME280;11310;51.528;21.204;2022-08-19T06:49:55;99672.69;;;26.14;96.95
22283;BME280;11310;51.528;21.204;2022-08-19T06:52:29;99673.59;;;26.29;95.85
22283;BME280;11310;51.528;21.204;2022-08-19T06:55:01;99672.66;;;26.45;95.33
22283;BME280;11310;51.528;21.204;2022-08-19T06:57:33;99675.78;;;26.56;94.31
22283;BME280;11310;51.528;21.204;2022-08-19T07:00:03;99671.00;;;26.66;93.42
22283;BME280;11310;51.528;21.204;2022-08-19T07:02:40;99651.91;;;26.76;93.30
22283;BME280;11310;51.528;21.204;2022-08-19T07:05:21;99657.97;;;26.92;92.97
22283;BME280;11310;51.528;21.204;2022-08-19T07:07:53;99663.22;;;27.08;92.10
22283;BME280;11310;51.528;21.204;2022-08-19T07:10:27;99667.41;;;27.25;91.29
22283;BME280;11310;51.528;21.204;2022-08-19T07:12:58;99665.19;;;27.43;90.92
22283;BME280;11310;51.528;21.204;2022-08-19T07:15:27;99665.84;;;27.60;90.24
22283;BME280;11310;51.528;21.204;2022-08-19T07:17:57;99665.47;;;27.77;89.44
22283;BME280;11310;51.528;21.204;2022-08-19T07:20:26;99669.16;;;27.91;88.12
22283;BME280;11310;51.528;21.204;2022-08-19T07:22:56;99669.31;;;28.04;87.96
22283;BME280;11310;51.528;21.204;2022-08-19T07:25:25;99663.81;;;28.12;86.79
22283;BME280;11310;51.528;21.204;2022-08-19T07:27:59;99662.69;;;28.21;87.10
22283;BME280;11310;51.528;21.204;2022-08-19T07:30:28;99667.97;;;28.29;87.29
22283;BME280;11310;51.528;21.204;2022-08-19T07:32:59;99669.13;;;28.41;87.69
22283;BME280;11310;51.528;21.204;2022-08-19T07:35:32;99672.59;;;28.56;87.51
22283;BME280;11310;51.528;21.204;2022-08-19T07:38:02;99677.09;;;28.70;86.88
22283;BME280;11310;51.528;21.204;2022-08-19T07:40:31;99675.53;;;28.82;86.47
22283;BME280;11310;51.528;21.204;2022-08-19T07:43:00;99670.63;;;28.92;85.99
22283;BME280;11310;51.528;21.204;2022-08-19T07:45:30;99669.28;;;29.03;84.64
22283;BME280;11310;51.528;21.204;2022-08-19T07:48:03;99667.50;;;29.10;84.46
22283;BME280;11310;51.528;21.204;2022-08-19T07:50:33;99662.75;;;29.18;84.13
22283;BME280;11310;51.528;21.204;2022-08-19T07:53:05;99660.09;;;29.25;83.38
22283;BME280;11310;51.528;21.204;2022-08-19T07:55:35;99668.31;;;29.38;84.01
22283;BME280;11310;51.528;21.204;2022-08-19T07:58:10;99668.38;;;29.51;83.65
22283;BME280;11310;51.528;21.204;2022-08-19T08:00:40;99669.09;;;29.66;83.01
22283;BME280;11310;51.528;21.204;2022-08-19T08:03:11;99670.22;;;29.78;81.46
22283;BME280;11310;51.528;21.204;2022-08-19T08:05:40;99657.34;;;29.86;80.10
22283;BME280;11310;51.528;21.204;2022-08-19T08:08:28;99661.53;;;29.95;80.55
22283;BME280;11310;51.528;21.204;2022-08-19T08:11:16;99665.53;;;30.06;80.47
22283;BME280;11310;51.528;21.204;2022-08-19T08:13:48;99663.84;;;30.11;79.25
22283;BME280;11310;51.528;21.204;2022-08-19T08:16:33;99657.22;;;30.14;78.36
22283;BME280;11310;51.528;21.204;2022-08-19T08:19:14;99658.94;;;30.21;79.40
22283;BME280;11310;51.528;21.204;2022-08-19T08:21:52;99658.94;;;30.28;77.21
22283;BME280;11310;51.528;21.204;2022-08-19T08:24:22;99659.19;;;30.33;77.72
22283;BME280;11310;51.528;21.204;2022-08-19T08:26:55;99671.69;;;30.40;76.64
22283;BME280;11310;51.528;21.204;2022-08-19T08:29:27;99666.06;;;30.48;77.84
22283;BME280;11310;51.528;21.204;2022-08-19T08:32:02;99668.16;;;30.59;76.28
22283;BME280;11310;51.528;21.204;2022-08-19T08:34:41;99664.03;;;30.70;76.76
22283;BME280;11310;51.528;21.204;2022-08-19T08:37:13;99662.34;;;30.75;75.24
22283;BME280;11310;51.528;21.204;2022-08-19T08:39:42;99662.16;;;30.77;74.08
22283;BME280;11310;51.528;21.204;2022-08-19T08:42:16;99669.25;;;30.84;74.47
22283;BME280;11310;51.528;21.204;2022-08-19T08:44:53;99666.31;;;30.92;74.12
22283;BME280;11310;51.528;21.204;2022-08-19T08:47:28;99673.59;;;30.98;74.24
22283;BME280;11310;51.528;21.204;2022-08-19T08:50:05;99680.72;;;31.06;73.48
22283;BME280;11310;51.528;21.204;2022-08-19T08:52:38;99682.38;;;31.13;73.45
22283;BME280;11310;51.528;21.204;2022-08-19T08:55:12;99691.56;;;31.25;73.37
22283;BME280;11310;51.528;21.204;2022-08-19T08:57:51;99696.34;;;31.36;74.25
22283;BME280;11310;51.528;21.204;2022-08-19T09:00:24;99701.78;;;31.43;73.57
22283;BME280;11310;51.528;21.204;2022-08-19T09:02:53;99699.88;;;31.50;70.59
22283;BME280;11310;51.528;21.204;2022-08-19T09:05:26;99688.56;;;31.66;72.47
22283;BME280;11310;51.528;21.204;2022-08-19T09:08:12;99693.56;;;31.75;72.71
22283;BME280;11310;51.528;21.204;2022-08-19T09:10:49;99692.72;;;31.81;73.52
22283;BME280;11310;51.528;21.204;2022-08-19T09:13:27;99702.66;;;32.00;70.16
22283;BME280;11310;51.528;21.204;2022-08-19T09:16:06;99705.31;;;32.13;72.57
22283;BME280;11310;51.528;21.204;2022-08-19T09:18:40;99703.41;;;32.20;71.28
22283;BME280;11310;51.528;21.204;2022-08-19T09:21:10;99700.47;;;32.28;71.10
22283;BME280;11310;51.528;21.204;2022-08-19T09:23:39;99704.59;;;32.37;71.16
22283;BME280;11310;51.528;21.204;2022-08-19T09:26:10;99697.03;;;32.39;70.04
22283;BME280;11310;51.528;21.204;2022-08-19T09:28:44;99697.56;;;32.54;70.70
22283;BME280;11310;51.528;21.204;2022-08-19T09:31:16;99701.00;;;32.74;67.63
22283;BME280;11310;51.528;21.204;2022-08-19T09:33:46;99698.88;;;32.83;68.85
22283;BME280;11310;51.528;21.204;2022-08-19T09:36:21;99696.72;;;32.91;67.23
22283;BME280;11310;51.528;21.204;2022-08-19T09:39:02;99687.66;;;32.97;69.08
22283;BME280;11310;51.528;21.204;2022-08-19T09:41:42;99677.38;;;32.99;67.51
22283;BME280;11310;51.528;21.204;2022-08-19T09:44:15;99686.78;;;33.03;66.29
22283;BME280;11310;51.528;21.204;2022-08-19T09:46:46;99693.75;;;33.17;66.13
22283;BME280;11310;51.528;21.204;2022-08-19T09:49:16;99697.63;;;33.28;66.50
22283;BME280;11310;51.528;21.204;2022-08-19T09:51:51;99690.88;;;33.37;63.47
22283;BME280;11310;51.528;21.204;2022-08-19T09:54:22;99693.69;;;33.48;63.97
22283;BME280;11310;51.528;21.204;2022-08-19T09:56:51;99696.50;;;33.60;65.01
22283;BME280;11310;51.528;21.204;2022-08-19T09:59:21;99692.94;;;33.59;64.42
22283;BME280;11310;51.528;21.204;2022-08-19T10:01:50;99684.03;;;33.52;61.24
22283;BME280;11310;51.528;21.204;2022-08-19T10:04:19;99693.97;;;33.40;62.16
22283;BME280;11310;51.528;21.204;2022-08-19T10:06:55;99696.56;;;33.53;60.42
22283;BME280;11310;51.528;21.204;2022-08-19T10:09:25;99704.00;;;33.64;63.27
22283;BME280;11310;51.528;21.204;2022-08-19T10:12:02;99704.31;;;33.74;63.00
22283;BME280;11310;51.528;21.204;2022-08-19T10:14:33;99696.47;;;33.84;62.57
22283;BME280;11310;51.528;21.204;2022-08-19T10:17:02;99697.38;;;33.96;62.50
22283;BME280;11310;51.528;21.204;2022-08-19T10:19:48;99693.88;;;34.07;62.45
22283;BME280;11310;51.528;21.204;2022-08-19T10:22:23;99697.78;;;34.11;61.35
22283;BME280;11310;51.528;21.204;2022-08-19T10:24:52;99694.44;;;34.09;61.67
22283;BME280;11310;51.528;21.204;2022-08-19T10:27:21;99689.16;;;34.14;61.55
22283;BME280;11310;51.528;21.204;2022-08-19T10:29:52;99690.03;;;34.26;60.90
22283;BME280;11310;51.528;21.204;2022-08-19T10:32:21;99686.91;;;34.29;59.86
22283;BME280;11310;51.528;21.204;2022-08-19T10:35:00;99683.47;;;34.34;61.08
22283;BME280;11310;51.528;21.204;2022-08-19T10:37:33;99671.25;;;34.36;58.78
22283;BME280;11310;51.528;21.204;2022-08-19T10:40:22;99676.72;;;34.36;59.74
22283;BME280;11310;51.528;21.204;2022-08-19T10:42:51;99676.63;;;34.43;60.69
22283;BME280;11310;51.528;21.204;2022-08-19T10:45:20;99677.59;;;34.48;58.52
22283;BME280;11310;51.528;21.204;2022-08-19T10:47:54;99683.44;;;34.63;60.96
22283;BME280;11310;51.528;21.204;2022-08-19T10:50:26;99683.50;;;34.86;60.47
22283;BME280;11310;51.528;21.204;2022-08-19T10:53:18;99672.75;;;35.03;57.23
22283;BME280;11310;51.528;21.204;2022-08-19T10:55:51;99670.84;;;35.15;56.29
22283;BME280;11310;51.528;21.204;2022-08-19T10:58:37;99672.41;;;35.22;55.53
22283;BME280;11310;51.528;21.204;2022-08-19T11:01:07;99668.25;;;35.43;56.22
22283;BME280;11310;51.528;21.204;2022-08-19T11:03:36;99660.41;;;35.58;56.52
22283;BME280;11310;51.528;21.204;2022-08-19T11:06:06;99660.97;;;35.72;55.38
22283;BME280;11310;51.528;21.204;2022-08-19T11:08:37;99660.13;;;35.83;55.10
22283;BME280;11310;51.528;21.204;2022-08-19T11:11:08;99659.78;;;35.91;54.60
22283;BME280;11310;51.528;21.204;2022-08-19T11:13:39;99661.75;;;35.95;55.97
22283;BME280;11310;51.528;21.204;2022-08-19T11:16:11;99656.06;;;35.97;54.24
22283;BME280;11310;51.528;21.204;2022-08-19T11:18:43;99657.03;;;35.91;55.64
22283;BME280;11310;51.528;21.204;2022-08-19T11:21:14;99659.91;;;35.84;55.18
22283;BME280;11310;51.528;21.204;2022-08-19T11:23:47;99656.09;;;35.85;54.86
22283;BME280;11310;51.528;21.204;2022-08-19T11:26:17;99657.97;;;35.96;54.91
22283;BME280;11310;51.528;21.204;2022-08-19T11:28:47;99656.75;;;36.04;53.75
22283;BME280;11310;51.528;21.204;2022-08-19T11:31:20;99647.38;;;36.00;53.09
22283;BME280;11310;51.528;21.204;2022-08-19T11:33:56;99640.78;;;35.73;52.20
22283;BME280;11310;51.528;21.204;2022-08-19T11:36:25;99628.94;;;35.56;54.28
22283;BME280;11310;51.528;21.204;2022-08-19T11:38:57;99626.97;;;35.51;53.63
22283;BME280;11310;51.528;21.204;2022-08-19T11:41:26;99627.78;;;35.52;54.50
22283;BME280;11310;51.528;21.204;2022-08-19T11:43:55;99636.91;;;35.57;54.87
22283;BME280;11310;51.528;21.204;2022-08-19T11:46:25;99625.97;;;35.57;54.28
22283;BME280;11310;51.528;21.204;2022-08-19T11:48:56;99617.09;;;35.62;55.74
22283;BME280;11310;51.528;21.204;2022-08-19T11:51:27;99623.25;;;35.57;54.44
22283;BME280;11310;51.528;21.204;2022-08-19T11:53:58;99628.94;;;35.56;52.89
22283;BME280;11310;51.528;21.204;2022-08-19T11:56:28;99614.13;;;35.52;47.18
22283;BME280;11310;51.528;21.204;2022-08-19T11:58:57;99614.84;;;35.47;54.96
22283;BME280;11310;51.528;21.204;2022-08-19T12:01:26;99617.81;;;35.46;52.84
22283;BME280;11310;51.528;21.204;2022-08-19T12:03:56;99611.41;;;35.40;52.80
22283;BME280;11310;51.528;21.204;2022-08-19T12:06:29;99611.19;;;35.42;52.81
22283;BME280;11310;51.528;21.204;2022-08-19T12:09:03;99602.28;;;35.46;51.68
22283;BME280;11310;51.528;21.204;2022-08-19T12:11:33;99605.16;;;35.40;53.12
22283;BME280;11310;51.528;21.204;2022-08-19T12:14:02;99607.66;;;35.30;52.78
22283;BME280;11310;51.528;21.204;2022-08-19T12:16:32;99597.22;;;35.27;51.82
22283;BME280;11310;51.528;21.204;2022-08-19T12:19:06;99586.28;;;35.27;50.75
22283;BME280;11310;51.528;21.204;2022-08-19T12:21:35;99600.50;;;35.28;52.21
22283;BME280;11310;51.528;21.204;2022-08-19T12:24:06;99597.53;;;35.42;51.22
22283;BME280;11310;51.528;21.204;2022-08-19T12:26:35;99599.38;;;35.64;50.78
22283;BME280;11310;51.528;21.204;2022-08-19T12:29:20;99595.91;;;35.80;49.75
22283;BME280;11310;51.528;21.204;2022-08-19T12:31:56;99591.63;;;35.73;48.45
22283;BME280;11310;51.528;21.204;2022-08-19T12:34:31;99591.09;;;35.59;47.97
22283;BME280;11310;51.528;21.204;2022-08-19T12:37:02;99592.88;;;35.54;47.96
22283;BME280;11310;51.528;21.204;2022-08-19T12:39:36;99589.41;;;35.58;47.36
22283;BME280;11310;51.528;21.204;2022-08-19T12:42:06;99587.06;;;35.62;48.52
22283;BME280;11310;51.528;21.204;2022-08-19T12:44:35;99585.97;;;35.63;48.16
22283;BME280;11310;51.528;21.204;2022-08-19T12:47:08;99572.91;;;35.65;49.54
22283;BME280;11310;51.528;21.204;2022-08-19T12:49:37;99580.25;;;35.76;48.66
22283;BME280;11310;51.528;21.204;2022-08-19T12:52:22;99582.41;;;35.74;47.21
22283;BME280;11310;51.528;21.204;2022-08-19T12:54:54;99571.72;;;35.61;46.79
22283;BME280;11310;51.528;21.204;2022-08-19T12:57:26;99579.25;;;35.42;47.31
22283;BME280;11310;51.528;21.204;2022-08-19T13:00:01;99574.91;;;35.30;48.48
22283;BME280;11310;51.528;21.204;2022-08-19T13:02:32;99568.84;;;35.28;47.22
22283;BME280;11310;51.528;21.204;2022-08-19T13:05:07;99566.97;;;35.28;47.28
22283;BME280;11310;51.528;21.204;2022-08-19T13:07:38;99571.69;;;35.33;48.99
22283;BME280;11310;51.528;21.204;2022-08-19T13:10:09;99570.84;;;35.44;49.51
22283;BME280;11310;51.528;21.204;2022-08-19T13:12:39;99573.78;;;35.54;47.76